createdAt,value
2022-11-20T00:01:34.790Z,9.80
2022-11-20T00:04:02.811Z,10.20
2022-11-20T00:06:32.807Z,9.63
2022-11-20T00:09:02.641Z,9.82
2022-11-20T00:11:32.264Z,11.00
2022-11-20T00:14:01.684Z,9.77
2022-11-20T00:16:31.801Z,9.90
2022-11-20T00:18:59.601Z,10.68
2022-11-20T00:21:28.946Z,10.18
2022-11-20T00:23:58.098Z,9.50
2022-11-20T00:26:30.109Z,10.02
2022-11-20T00:28:59.291Z,9.82
2022-11-20T00:31:28.324Z,9.50
2022-11-20T00:33:56.223Z,9.20
2022-11-20T00:36:26.146Z,9.32
2022-11-20T00:38:55.552Z,9.55
2022-11-20T00:41:24.722Z,9.00
2022-11-20T00:43:55.631Z,10.40
2022-11-20T00:46:26.118Z,10.27
2022-11-20T00:48:53.980Z,9.43
2022-11-20T00:51:24.661Z,9.50
2022-11-20T00:53:52.861Z,9.90
2022-11-20T00:56:21.702Z,13.13
2022-11-20T00:58:51.112Z,13.18
2022-11-20T01:01:24.984Z,13.43
2022-11-20T01:03:54.459Z,13.13
2022-11-20T01:06:25.296Z,12.10
2022-11-20T01:08:56.110Z,13.10
2022-11-20T01:11:26.038Z,12.82
2022-11-20T01:13:55.389Z,12.05
2022-11-20T01:16:28.170Z,12.80
2022-11-20T01:18:59.611Z,13.30
2022-11-20T01:21:29.023Z,12.77
2022-11-20T01:23:56.641Z,13.65
2022-11-20T01:26:26.320Z,13.70
2022-11-20T01:28:55.430Z,13.45
2022-11-20T01:31:27.551Z,13.63
2022-11-20T01:33:57.041Z,12.75
2022-11-20T01:36:26.730Z,12.95
2022-11-20T01:38:56.113Z,12.63
2022-11-20T01:41:42.959Z,11.57
2022-11-20T01:44:12.650Z,11.45
2022-11-20T01:46:50.365Z,10.52
2022-11-20T01:49:21.919Z,9.95
2022-11-20T01:54:24.563Z,9.48
2022-11-20T01:56:57.177Z,10.25
2022-11-20T01:59:26.678Z,9.73
2022-11-20T02:01:56.709Z,10.13
2022-11-20T02:04:25.145Z,10.00
2022-11-20T02:07:01.145Z,10.98
2022-11-20T02:09:30.766Z,10.30
2022-11-20T02:12:00.112Z,9.73
2022-11-20T02:14:30.197Z,10.43
2022-11-20T02:17:00.107Z,10.43
2022-11-20T02:19:29.579Z,9.80
2022-11-20T02:22:04.188Z,10.32
2022-11-20T02:24:33.371Z,10.50
2022-11-20T02:27:04.180Z,10.05
2022-11-20T02:29:35.737Z,9.90
2022-11-20T02:32:06.209Z,9.30
2022-11-20T02:34:34.105Z,9.55
2022-11-20T02:37:02.050Z,10.35
2022-11-20T02:39:34.095Z,9.38
2022-11-20T02:42:03.190Z,10.35
2022-11-20T02:44:33.070Z,9.93
2022-11-20T02:47:01.006Z,9.65
2022-11-20T02:49:30.243Z,9.13
2022-11-20T02:52:01.702Z,9.68
2022-11-20T02:54:31.789Z,9.40
2022-11-20T02:57:51.102Z,9.93
2022-11-20T03:00:44.180Z,9.45
2022-11-20T03:03:12.552Z,8.82
2022-11-20T03:05:40.165Z,9.38
2022-11-20T03:08:09.113Z,9.80
2022-11-20T03:10:36.698Z,9.82
2022-11-20T03:13:06.231Z,11.52
2022-11-20T03:15:33.824Z,13.27
2022-11-20T03:18:01.716Z,12.90
2022-11-20T03:20:34.069Z,13.13
2022-11-20T03:23:05.078Z,12.80
2022-11-20T03:25:33.094Z,11.60
2022-11-20T03:28:01.204Z,10.52
2022-11-20T03:33:48.501Z,9.38
2022-11-20T03:36:18.092Z,10.27
2022-11-20T03:38:47.225Z,9.73
2022-11-20T03:41:17.325Z,9.82
2022-11-20T03:43:53.092Z,9.50
2022-11-20T03:46:23.302Z,9.27
2022-11-20T03:48:52.372Z,8.90
2022-11-20T03:51:22.063Z,9.32
2022-11-20T03:53:51.140Z,9.13
2022-11-20T03:56:22.048Z,9.95
2022-11-20T03:58:51.072Z,8.98
2022-11-20T04:01:21.548Z,9.18
2022-11-20T04:03:51.452Z,9.40
2022-11-20T04:06:44.118Z,9.43
2022-11-20T04:09:13.238Z,10.00
2022-11-20T04:11:42.284Z,9.88
2022-11-20T04:14:16.360Z,10.07
2022-11-20T04:16:46.158Z,9.05
2022-11-20T04:19:17.894Z,9.70
2022-11-20T04:21:46.158Z,9.48
2022-11-20T04:24:15.803Z,10.13
2022-11-20T04:26:44.098Z,9.23
2022-11-20T04:29:13.614Z,10.02
2022-11-20T04:31:41.215Z,9.60
2022-11-20T04:34:09.336Z,10.43
2022-11-20T04:36:38.201Z,9.82
2022-11-20T04:39:08.109Z,10.40
2022-11-20T04:41:37.471Z,10.07
2022-11-20T04:44:06.411Z,10.57
2022-11-20T04:46:37.083Z,10.35
2022-11-20T04:49:06.087Z,10.82
2022-11-20T04:51:35.281Z,10.98
2022-11-20T04:54:05.239Z,10.30
2022-11-20T04:56:32.844Z,10.38
2022-11-20T04:59:03.064Z,10.18
2022-11-20T05:01:31.329Z,10.73
2022-11-20T05:03:59.498Z,11.05
2022-11-20T05:06:27.061Z,10.52
2022-11-20T05:08:54.633Z,11.90
2022-11-20T05:11:23.803Z,11.63
2022-11-20T05:13:53.064Z,10.88
2022-11-20T05:16:22.391Z,10.75
2022-11-20T05:18:51.159Z,11.38
2022-11-20T05:21:20.080Z,11.05
2022-11-20T05:23:49.115Z,11.65
2022-11-20T05:26:19.956Z,10.68
2022-11-20T05:28:50.064Z,12.20
2022-11-20T05:31:26.576Z,11.80
2022-11-20T05:33:56.021Z,11.00
2022-11-20T05:36:23.556Z,11.65
2022-11-20T05:38:52.341Z,11.90
2022-11-20T05:41:22.164Z,11.38
2022-11-20T05:43:51.710Z,11.40
2022-11-20T05:46:26.407Z,11.55
2022-11-20T05:49:22.331Z,11.18
2022-11-20T05:52:19.129Z,11.63
2022-11-20T05:54:47.113Z,11.40
2022-11-20T05:57:15.140Z,12.35
2022-11-20T05:59:44.857Z,11.20
2022-11-20T06:02:13.121Z,11.15
2022-11-20T06:04:41.539Z,10.95
2022-11-20T06:07:10.135Z,11.25
2022-11-20T06:09:37.739Z,11.43
2022-11-20T06:12:05.944Z,11.75
2022-11-20T06:14:33.552Z,11.82
2022-11-20T06:17:02.730Z,11.07
2022-11-20T06:19:31.096Z,11.23
2022-11-20T06:21:58.732Z,11.02
2022-11-20T06:24:27.429Z,12.30
2022-11-20T06:26:58.772Z,11.23
2022-11-20T06:29:31.330Z,11.35
2022-11-20T06:32:03.089Z,11.30
2022-11-20T06:34:30.651Z,11.13
2022-11-20T06:36:58.168Z,10.85
2022-11-20T06:39:31.077Z,11.65
2022-11-20T06:41:59.617Z,12.25
2022-11-20T06:44:27.712Z,10.85
2022-11-20T06:46:56.088Z,11.85
2022-11-20T06:49:26.165Z,11.85
2022-11-20T06:52:20.073Z,11.98
2022-11-20T06:54:47.645Z,11.48
2022-11-20T06:57:16.126Z,11.40
2022-11-20T06:59:43.674Z,12.25
2022-11-20T07:02:13.086Z,11.77
2022-11-20T07:04:43.898Z,11.88
2022-11-20T07:07:11.544Z,11.57
2022-11-20T07:09:39.115Z,12.10
2022-11-20T07:12:08.131Z,12.82
2022-11-20T07:14:37.483Z,12.15
2022-11-20T07:17:05.029Z,12.18
2022-11-20T07:19:32.582Z,12.60
2022-11-20T07:22:01.840Z,12.80
2022-11-20T07:24:30.127Z,12.35
2022-11-20T07:26:59.071Z,12.35
2022-11-20T07:29:26.662Z,12.23
2022-11-20T07:31:56.580Z,11.90
2022-11-20T07:34:26.428Z,12.75
2022-11-20T07:36:54.005Z,11.60
2022-11-20T07:39:24.099Z,12.13
2022-11-20T07:41:51.801Z,12.65
2022-11-20T07:44:19.303Z,11.18
2022-11-20T07:46:46.926Z,12.45
2022-11-20T07:49:14.480Z,12.32
2022-11-20T07:51:42.176Z,12.07
2022-11-20T07:54:10.054Z,12.18
2022-11-20T07:56:38.954Z,11.95
2022-11-20T07:59:12.681Z,13.25
2022-11-20T08:01:40.349Z,14.75
2022-11-20T08:04:08.749Z,13.85
2022-11-20T08:06:38.127Z,12.57
2022-11-20T08:09:05.744Z,13.27
2022-11-20T08:11:51.087Z,12.77
2022-11-20T08:14:25.061Z,13.15
2022-11-20T08:16:54.138Z,13.32
2022-11-20T08:19:22.754Z,13.40
2022-11-20T08:21:52.152Z,12.60
2022-11-20T08:24:21.433Z,12.73
2022-11-20T08:26:49.134Z,14.13
2022-11-20T08:29:17.639Z,13.20
2022-11-20T08:31:48.202Z,12.70
2022-11-20T08:34:19.224Z,11.63
2022-11-20T08:36:47.080Z,12.40
2022-11-20T08:39:15.051Z,12.65
2022-11-20T08:41:42.610Z,12.68
2022-11-20T08:44:10.224Z,12.88
2022-11-20T08:46:44.531Z,12.23
2022-11-20T08:49:15.601Z,12.60
2022-11-20T08:51:43.977Z,11.57
2022-11-20T08:54:12.088Z,13.13
2022-11-20T08:56:39.701Z,13.38
2022-11-20T08:59:43.886Z,12.95
2022-11-20T09:01:56.658Z,12.93
2022-11-20T09:04:26.084Z,12.95
2022-11-20T09:06:53.649Z,12.45
2022-11-20T09:09:21.631Z,12.68
2022-11-20T09:11:50.874Z,13.07
2022-11-20T09:14:18.489Z,12.80
2022-11-20T09:16:47.157Z,12.57
2022-11-20T09:22:03.890Z,13.38
2022-11-20T09:24:57.263Z,13.40
2022-11-20T09:27:25.636Z,14.32
2022-11-20T09:29:53.474Z,14.48
2022-11-20T09:32:20.989Z,15.00
2022-11-20T09:34:48.550Z,14.50
2022-11-20T09:37:17.458Z,14.52
2022-11-20T09:39:46.162Z,14.52
2022-11-20T09:42:35.682Z,15.18
2022-11-20T09:45:26.557Z,15.30
2022-11-20T09:48:32.306Z,13.75
2022-11-20T09:51:07.357Z,14.57
2022-11-20T09:53:47.556Z,14.70
2022-11-20T09:56:22.537Z,14.38
2022-11-20T09:58:55.147Z,14.40
2022-11-20T10:01:28.047Z,14.90
2022-11-20T10:03:59.315Z,14.82
2022-11-20T10:06:34.165Z,15.27
2022-11-20T10:09:18.759Z,15.60
2022-11-20T10:11:57.785Z,14.85
2022-11-20T10:14:38.126Z,15.68
2022-11-20T10:17:18.501Z,16.05
2022-11-20T10:19:59.068Z,16.00
2022-11-20T10:22:42.884Z,16.38
2022-11-20T10:25:17.104Z,17.65
2022-11-20T10:27:57.543Z,17.08
2022-11-20T10:30:50.059Z,16.85
2022-11-20T10:33:23.374Z,16.02
2022-11-20T10:35:57.044Z,16.77
2022-11-20T10:38:28.104Z,17.35
2022-11-20T10:41:19.351Z,16.45
2022-11-20T10:43:48.819Z,17.48
2022-11-20T10:46:20.101Z,16.83
2022-11-20T10:48:48.989Z,16.50
2022-11-20T10:51:29.210Z,15.93
2022-11-20T10:54:12.378Z,17.27
2022-11-20T10:56:49.636Z,16.33
2022-11-20T10:59:40.631Z,17.15
2022-11-20T11:02:20.251Z,16.83
2022-11-20T11:04:49.209Z,16.58
2022-11-20T11:07:21.121Z,16.98
2022-11-20T11:12:18.876Z,16.77
2022-11-20T11:14:49.120Z,15.68
2022-11-20T11:17:27.852Z,15.85
2022-11-20T11:20:03.062Z,17.30
2022-11-20T11:22:33.045Z,16.33
2022-11-20T11:25:02.223Z,17.38
2022-11-20T11:27:31.140Z,15.57
2022-11-20T11:30:15.095Z,16.33
2022-11-20T11:32:42.963Z,15.63
2022-11-20T11:35:22.899Z,14.65
2022-11-20T11:37:51.949Z,13.98
2022-11-20T11:40:24.946Z,14.55
2022-11-20T11:42:58.520Z,13.65
2022-11-20T11:45:25.940Z,11.65
2022-11-20T11:47:57.652Z,10.65
2022-11-20T11:53:04.057Z,9.73
2022-11-20T11:55:39.063Z,10.77
2022-11-20T11:58:21.138Z,9.30
2022-11-20T12:00:57.085Z,9.00
2022-11-20T12:03:30.428Z,8.50
2022-11-20T12:06:01.796Z,8.65
2022-11-20T12:08:34.659Z,8.10
2022-11-20T12:11:06.559Z,8.15
2022-11-20T12:13:46.177Z,6.78
2022-11-20T12:16:16.496Z,6.60
2022-11-20T12:18:44.911Z,5.78
2022-11-20T12:21:21.187Z,6.22
2022-11-20T12:24:08.663Z,7.00
2022-11-20T12:26:49.118Z,6.97
2022-11-20T12:29:29.506Z,7.88
2022-11-20T12:32:08.591Z,6.95
2022-11-20T12:34:54.463Z,6.80
2022-11-20T12:37:35.263Z,6.85
2022-11-20T12:40:19.581Z,8.73
2022-11-20T12:43:20.373Z,8.77
2022-11-20T12:46:20.162Z,8.52
2022-11-20T12:49:01.961Z,8.63
2022-11-20T12:51:49.256Z,8.77
2022-11-20T12:54:41.243Z,9.55
2022-11-20T12:57:18.396Z,11.02
2022-11-20T13:00:05.319Z,11.73
2022-11-20T13:02:48.583Z,11.75
2022-11-20T13:05:23.586Z,11.45
2022-11-20T13:07:54.889Z,11.55
2022-11-20T13:10:32.021Z,12.07
2022-11-20T13:13:05.896Z,12.00
2022-11-20T13:15:46.930Z,13.35
2022-11-20T13:18:16.307Z,12.13
2022-11-20T13:20:45.401Z,11.57
2022-11-20T13:23:24.506Z,12.75
2022-11-20T13:25:53.614Z,13.75
2022-11-20T13:28:30.911Z,13.27
2022-11-20T13:31:00.571Z,14.18
2022-11-20T13:33:32.686Z,13.68
2022-11-20T13:36:03.089Z,13.65
2022-11-20T13:38:50.311Z,14.35
2022-11-20T13:41:34.802Z,14.75
2022-11-20T13:44:12.677Z,14.13
2022-11-20T13:46:44.085Z,14.05
2022-11-20T13:49:24.230Z,14.48
2022-11-20T13:51:57.328Z,13.95
2022-11-20T13:54:52.825Z,14.85
2022-11-20T13:57:44.968Z,14.23
2022-11-20T14:00:16.701Z,15.82
2022-11-20T14:02:45.652Z,14.60
2022-11-20T14:05:22.357Z,14.90
2022-11-20T14:07:53.515Z,14.75
2022-11-20T14:10:25.891Z,15.30
2022-11-20T14:12:57.958Z,15.63
2022-11-20T14:15:33.098Z,15.00
2022-11-20T14:18:12.844Z,16.23
2022-11-20T14:20:43.440Z,15.90
2022-11-20T14:23:12.738Z,16.15
2022-11-20T14:25:45.096Z,15.70
2022-11-20T14:28:24.892Z,16.20
2022-11-20T14:30:53.067Z,15.85
2022-11-20T14:33:25.666Z,15.30
2022-11-20T14:35:57.631Z,16.15
2022-11-20T14:41:08.758Z,15.93
2022-11-20T14:43:38.580Z,15.52
2022-11-20T14:46:08.935Z,15.30
2022-11-20T14:48:44.149Z,15.80
2022-11-20T14:51:25.007Z,15.18
2022-11-20T14:53:55.220Z,15.63
2022-11-20T14:56:24.884Z,16.27
2022-11-20T14:59:00.100Z,15.82
2022-11-20T15:01:33.064Z,16.13
2022-11-20T15:04:08.407Z,15.82
2022-11-20T15:06:38.426Z,15.68
2022-11-20T15:09:07.194Z,16.05
2022-11-20T15:11:37.636Z,15.40
2022-11-20T15:14:08.768Z,14.73
2022-11-20T15:16:36.413Z,15.10
2022-11-20T15:19:17.562Z,14.65
2022-11-20T15:21:47.110Z,15.00
2022-11-20T15:24:15.108Z,14.68
2022-11-20T15:26:44.128Z,14.82
2022-11-20T15:29:13.132Z,15.18
2022-11-20T15:31:44.284Z,13.75
2022-11-20T15:34:13.535Z,14.35
2022-11-20T15:37:08.105Z,14.38
2022-11-20T15:39:35.905Z,14.68
2022-11-20T15:42:03.604Z,13.88
2022-11-20T15:44:31.152Z,14.48
2022-11-20T15:46:58.808Z,14.93
2022-11-20T15:49:26.496Z,13.57
2022-11-20T15:51:54.838Z,14.77
2022-11-20T15:54:24.924Z,13.65
2022-11-20T15:56:54.092Z,13.77
2022-11-20T15:59:22.140Z,13.70
2022-11-20T16:01:51.186Z,14.55
2022-11-20T16:04:19.426Z,14.30
2022-11-20T16:06:48.468Z,13.20
2022-11-20T16:09:16.641Z,13.98
2022-11-20T16:11:45.542Z,14.23
2022-11-20T16:14:32.095Z,14.73
2022-11-20T16:16:59.699Z,14.15
2022-11-20T16:19:27.463Z,13.50
2022-11-20T16:22:02.671Z,14.88
2022-11-20T16:24:31.272Z,15.38
2022-11-20T16:27:00.154Z,14.88
2022-11-20T16:29:27.709Z,14.90
2022-11-20T16:31:55.587Z,14.00
2022-11-20T16:34:23.443Z,14.15
2022-11-20T16:36:51.098Z,14.10
2022-11-20T16:39:23.308Z,14.63
2022-11-20T16:41:51.690Z,14.45
2022-11-20T16:44:22.483Z,14.15
2022-11-20T16:46:50.889Z,14.82
2022-11-20T16:49:18.418Z,15.27
2022-11-20T16:51:45.987Z,14.73
2022-11-20T16:54:17.921Z,14.77
2022-11-20T16:56:50.899Z,15.02
2022-11-20T16:59:20.049Z,15.18
2022-11-20T17:01:47.747Z,14.90
2022-11-20T17:04:15.783Z,16.08
2022-11-20T17:06:45.289Z,15.27
2022-11-20T17:09:13.729Z,15.40
2022-11-20T17:11:41.429Z,14.65
2022-11-20T17:14:10.160Z,15.43
2022-11-20T17:16:39.463Z,14.40
2022-11-20T17:19:07.286Z,14.80
2022-11-20T17:21:36.836Z,15.50
2022-11-20T17:24:06.392Z,15.55
2022-11-20T17:26:35.091Z,15.65
2022-11-20T17:29:05.920Z,14.63
2022-11-20T17:31:35.080Z,15.60
2022-11-20T17:34:04.049Z,14.93
2022-11-20T17:36:33.180Z,15.48
2022-11-20T17:39:02.733Z,14.77
2022-11-20T17:41:31.083Z,14.63
2022-11-20T17:44:02.043Z,14.52
2022-11-20T17:46:32.792Z,14.57
2022-11-20T17:49:00.766Z,14.38
2022-11-20T17:51:31.382Z,16.33
2022-11-20T17:54:02.414Z,15.68
2022-11-20T17:56:51.070Z,14.57
2022-11-20T17:59:21.035Z,15.02
2022-11-20T18:01:49.596Z,14.70
2022-11-20T18:04:18.061Z,15.65
2022-11-20T18:06:47.014Z,14.27
2022-11-20T18:09:15.395Z,14.15
2022-11-20T18:11:44.021Z,14.98
2022-11-20T18:14:32.539Z,14.80
2022-11-20T18:17:03.065Z,15.07
2022-11-20T18:19:38.751Z,14.65
2022-11-20T18:22:10.311Z,14.55
2022-11-20T18:24:39.261Z,15.10
2022-11-20T18:27:08.253Z,15.68
2022-11-20T18:29:36.140Z,15.18
2022-11-20T18:32:03.946Z,15.73
2022-11-20T18:34:31.892Z,15.10
2022-11-20T18:36:59.617Z,16.38
2022-11-20T18:39:29.166Z,14.93
2022-11-20T18:42:28.742Z,14.52
2022-11-20T18:44:56.403Z,15.63
2022-11-20T18:47:27.738Z,16.20
2022-11-20T18:49:57.774Z,16.58
2022-11-20T18:52:28.035Z,15.82
2022-11-20T18:54:57.437Z,16.30
2022-11-20T18:57:26.992Z,15.68
2022-11-20T18:59:56.306Z,15.02
2022-11-20T19:02:24.088Z,14.90
2022-11-20T19:04:51.673Z,15.48
2022-11-20T19:07:19.372Z,15.73
2022-11-20T19:09:52.353Z,15.32
2022-11-20T19:12:22.400Z,15.60
2022-11-20T19:14:51.163Z,14.35
2022-11-20T19:17:18.823Z,14.25
2022-11-20T19:19:50.390Z,12.77
2022-11-20T19:22:18.176Z,13.52
2022-11-20T19:24:45.801Z,13.88
2022-11-20T19:27:13.426Z,13.75
2022-11-20T19:29:42.933Z,13.10
2022-11-20T19:32:11.214Z,13.02
2022-11-20T19:34:38.793Z,12.80
2022-11-20T19:37:06.411Z,13.68
2022-11-20T19:39:35.391Z,12.90
2022-11-20T19:42:03.149Z,12.23
2022-11-20T19:44:32.769Z,11.50
2022-11-20T19:47:04.085Z,11.88
2022-11-20T19:49:37.264Z,11.75
2022-11-20T19:52:06.069Z,12.00
2022-11-20T19:54:33.635Z,11.45
2022-11-20T19:57:02.036Z,12.10
2022-11-20T19:59:29.571Z,11.77
2022-11-20T20:01:58.094Z,11.63
2022-11-20T20:04:27.041Z,11.27
2022-11-20T20:06:56.440Z,11.80
2022-11-20T20:09:26.318Z,11.77
2022-11-20T20:11:54.498Z,11.80
2022-11-20T20:14:22.091Z,12.25
2022-11-20T20:16:50.553Z,10.60
2022-11-20T20:19:19.104Z,11.13
2022-11-20T20:21:49.609Z,10.85
2022-11-20T20:24:17.562Z,11.00
2022-11-20T20:26:45.108Z,9.90
2022-11-20T20:29:13.661Z,10.02
2022-11-20T20:31:41.256Z,10.73
2022-11-20T20:34:08.797Z,9.88
2022-11-20T20:36:36.395Z,9.65
2022-11-20T20:39:05.370Z,9.35
2022-11-20T20:41:33.375Z,10.48
2022-11-20T20:44:21.070Z,9.52
2022-11-20T20:46:48.631Z,9.23
2022-11-20T20:49:16.566Z,10.45
2022-11-20T20:51:44.365Z,9.18
2022-11-20T20:54:13.342Z,9.82
2022-11-20T20:56:42.582Z,9.32
2022-11-20T20:59:10.187Z,10.82
2022-11-20T21:01:37.744Z,9.50
2022-11-20T21:04:06.062Z,11.20
2022-11-20T21:06:33.568Z,10.00
2022-11-20T21:09:01.434Z,9.80
2022-11-20T21:11:30.385Z,9.05
2022-11-20T21:13:58.052Z,9.48
2022-11-20T21:16:27.199Z,8.65
2022-11-20T21:19:20.185Z,9.20
2022-11-20T21:21:58.808Z,9.20
2022-11-20T21:24:27.332Z,10.32
2022-11-20T21:26:58.072Z,8.75
2022-11-20T21:29:27.387Z,9.63
2022-11-20T21:31:55.343Z,9.05
2022-11-20T21:34:23.761Z,9.57
2022-11-20T21:36:51.892Z,9.10
2022-11-20T21:39:21.038Z,9.18
2022-11-20T21:41:48.608Z,10.82
2022-11-20T21:44:31.003Z,9.68
2022-11-20T21:47:00.053Z,9.55
2022-11-20T21:49:27.967Z,10.30
2022-11-20T21:51:56.067Z,9.27
2022-11-20T21:54:24.863Z,8.90
2022-11-20T21:56:52.576Z,9.50
2022-11-20T21:59:22.080Z,10.00
2022-11-20T22:01:52.534Z,10.57
2022-11-20T22:04:21.447Z,10.40
2022-11-20T22:06:49.350Z,10.75
2022-11-20T22:09:17.070Z,9.98
2022-11-20T22:11:44.559Z,10.45
2022-11-20T22:14:23.545Z,10.07
2022-11-20T22:16:54.445Z,9.70
2022-11-20T22:19:24.585Z,9.25
2022-11-20T22:21:52.244Z,9.20
2022-11-20T22:24:21.690Z,9.32
2022-11-20T22:26:49.819Z,10.43
2022-11-20T22:29:20.667Z,9.70
2022-11-20T22:31:48.626Z,10.68
2022-11-20T22:34:17.540Z,11.23
2022-11-20T22:36:45.526Z,10.68
2022-11-20T22:39:13.189Z,11.23
2022-11-20T22:41:40.848Z,11.10
2022-11-20T22:44:08.888Z,11.50
2022-11-20T22:46:38.089Z,12.65
2022-11-20T22:49:08.287Z,10.85
2022-11-20T22:51:41.058Z,10.75
2022-11-20T22:54:10.061Z,11.00
2022-11-20T22:56:37.690Z,10.50
2022-11-20T22:59:05.786Z,10.95
2022-11-20T23:01:35.218Z,10.38
2022-11-20T23:04:04.595Z,10.57
2022-11-20T23:06:34.140Z,11.20
2022-11-20T23:09:03.681Z,11.20
2022-11-20T23:11:32.466Z,11.20
2022-11-20T23:14:02.219Z,11.82
2022-11-20T23:16:31.718Z,11.80
2022-11-20T23:19:02.143Z,12.20
2022-11-20T23:21:29.750Z,11.05
2022-11-20T23:23:58.540Z,12.25
2022-11-20T23:26:29.242Z,11.80
2022-11-20T23:28:59.161Z,11.55
2022-11-20T23:31:29.107Z,11.90
2022-11-20T23:33:58.311Z,12.02
2022-11-20T23:36:26.184Z,11.68
2022-11-20T23:38:54.134Z,11.88
2022-11-20T23:41:22.005Z,11.88
2022-11-20T23:43:50.926Z,12.25
2022-11-20T23:46:44.298Z,11.68
2022-11-20T23:49:11.904Z,11.77
2022-11-20T23:51:39.520Z,11.73
2022-11-20T23:54:08.056Z,11.30
2022-11-20T23:56:35.696Z,11.40
2022-11-20T23:59:07.248Z,12.18
